Main page
METAR-TAF:

METAR-TAF

Airports :

George F. L. Charles Airport

Castries, Saint Lucia

latitude: 14-01N, longitude: 061-00W, elevation: 2 m

Current weather observation

The report was made 1 hour and 14 minutes ago, at 12:00 UTC
Wind 7 kt from the South
Temperature 27°C
Humidity 89%
Pressure 1016 hPa
Visibility 10 km or more
Few clouds at a height of 1700 ft, Towering cumulus.
Broken clouds at a height of 3800 ft
light rain showers

METAR: TLPC 231200Z 17007KT 9999 -SHRA FEW017TCU BKN038 27/25 Q1016 TEMPO SHRA

Time: 09:14 (13:14 UTC)

Forecast

The report was made 2 hours and 14 minutes ago, at 11:00 UTC
Forecast valid from 23 at 12 UTC to 24 at 12 UTC
Wind 11 kt from the East/Southeast
Visibility 10 km or more
Scattered clouds at a height of 4000 ft
Temporary
from 23 at 15 UTC to 24 at 06 UTC
Visibility: 5000 m
Broken clouds at a height of 1500 ft
Broken clouds at a height of 4000 ft
rain showers,

TAF: TLPC 231100Z 2312/2412 12011KT 9999 SCCT025 SCT040 TEMPO 2315/2406 5000 SHRA BKN015 BKN040

Weather observations and forecasts of more than 4000 airports (METAR and TAF reports).

The available stations are represented by yellow and red dots on the map.

Hover mouse over dot to see the name of the station.

Then click to see weather observations and forecasts.

To change the map : click on the green buttons with a black cross to zoom in, on the green button with a dash to zoom out, or on the green arrows for adjacent maps.


METAR-TAF: